Time;durP1;ratioP1;P1;durP2;ratioP2;P2;SDS_P1;SDS_P2;PMS_P1;PMS_P2;Temp;Humidity;BMP_temperature;BMP_pressure;BME280_temperature;BME280_humidity;BME280_pressure;Samples;Min_cycle;Max_cycle;Signal;HPM_P1;HPM_P2
2023/07/31 00:00:18;;;;;;;;;3.00;2.00;;;;;;;;5010925;28;51015;-58
2023/07/31 00:02:43;;;;;;;;;2.50;2.50;;;;;;;;5011945;28;51867;-58
2023/07/31 00:05:09;;;;;;;;;3.33;3.00;;;;;;;;5012369;28;50983;-58
2023/07/31 00:07:34;;;;;;;;;2.00;2.00;;;;;;;;5012860;28;51124;-58
2023/07/31 00:10:00;;;;;;;;;3.00;3.00;;;;;;;;4997122;28;51280;-58
2023/07/31 00:12:25;;;;;;;;;4.67;3.00;;;;;;;;5005096;28;51068;-58
2023/07/31 00:14:50;;;;;;;;;3.33;3.33;;;;;;;;4997921;28;51089;-57
2023/07/31 00:17:16;;;;;;;;;4.00;3.33;;;;;;;;4999392;28;51206;-58
2023/07/31 00:19:42;;;;;;;;;3.00;2.00;;;;;;;;5001246;28;50933;-58
2023/07/31 00:22:07;;;;;;;;;5.00;2.33;;;;;;;;5011310;28;51142;-58
2023/07/31 00:24:32;;;;;;;;;4.00;2.00;;;;;;;;5007944;28;50859;-58
2023/07/31 00:26:57;;;;;;;;;2.00;2.00;;;;;;;;4999204;28;53142;-58
2023/07/31 00:29:22;;;;;;;;;4.00;3.67;;;;;;;;5007923;28;51025;-58
2023/07/31 00:31:47;;;;;;;;;4.00;3.67;;;;;;;;4999080;28;51839;-57
2023/07/31 00:34:13;;;;;;;;;3.33;3.00;;;;;;;;5005185;28;51035;-58
2023/07/31 00:36:38;;;;;;;;;4.67;4.67;;;;;;;;5011507;28;51204;-58
2023/07/31 00:39:04;;;;;;;;;8.00;8.00;;;;;;;;5003071;28;51076;-58
2023/07/31 00:41:29;;;;;;;;;5.00;4.33;;;;;;;;5004383;28;52300;-58
2023/07/31 00:43:54;;;;;;;;;4.33;4.00;;;;;;;;5000577;28;51103;-58
2023/07/31 00:46:20;;;;;;;;;4.00;4.00;;;;;;;;5002455;28;51033;-58
2023/07/31 00:48:45;;;;;;;;;3.00;3.00;;;;;;;;5004768;28;51194;-58
2023/07/31 00:51:11;;;;;;;;;4.00;3.00;;;;;;;;4996809;28;51914;-58
2023/07/31 00:53:36;;;;;;;;;2.67;2.67;;;;;;;;5007471;28;51037;-58
2023/07/31 00:56:01;;;;;;;;;3.00;3.00;;;;;;;;5007942;28;51232;-58
2023/07/31 00:58:26;;;;;;;;;5.00;3.00;;;;;;;;5009232;28;50952;-58
2023/07/31 01:00:51;;;;;;;;;2.33;2.33;;;;;;;;4996304;28;51134;-58
2023/07/31 01:03:17;;;;;;;;;4.00;3.00;;;;;;;;5004663;28;51304;-57
2023/07/31 01:05:46;;;;;;;;;5.00;3.67;;;;;;;;5003004;28;50958;-58
2023/07/31 01:08:15;;;;;;;;;3.33;3.00;;;;;;;;5007730;28;51218;-58
2023/07/31 01:10:50;;;;;;;;;3.00;3.00;;;;;;;;5000472;28;52633;-58
2023/07/31 01:13:17;;;;;;;;;1.67;1.67;;;;;;;;5014960;28;50860;-58
2023/07/31 01:15:42;;;;;;;;;3.33;3.33;;;;;;;;5005664;28;51065;-58
2023/07/31 01:18:07;;;;;;;;;5.00;4.33;;;;;;;;4997931;28;51272;-58
2023/07/31 01:20:33;;;;;;;;;2.00;2.00;;;;;;;;4999929;28;51239;-58
2023/07/31 01:23:17;;;;;;;;;3.33;2.67;;;;;;;;5009805;28;51136;-57
2023/07/31 01:25:54;;;;;;;;;2.00;2.00;;;;;;;;5013730;28;51123;-57
2023/07/31 01:28:23;;;;;;;;;1.00;1.00;;;;;;;;5003956;28;51054;-57
2023/07/31 01:30:48;;;;;;;;;2.00;1.67;;;;;;;;4996754;28;52213;-57
2023/07/31 01:33:15;;;;;;;;;3.33;2.33;;;;;;;;5007929;28;51251;-58
2023/07/31 01:35:42;;;;;;;;;3.00;2.00;;;;;;;;5007001;28;51020;-57
2023/07/31 01:38:07;;;;;;;;;3.00;2.00;;;;;;;;5003122;28;51082;-56
2023/07/31 01:40:32;;;;;;;;;3.00;2.00;;;;;;;;5011169;28;51105;-57
2023/07/31 01:42:57;;;;;;;;;2.00;2.00;;;;;;;;5009588;28;51112;-58
2023/07/31 01:45:22;;;;;;;;;2.67;2.33;;;;;;;;5000657;28;50876;-58
2023/07/31 01:47:47;;;;;;;;;3.00;3.00;;;;;;;;4996749;28;51122;-58
2023/07/31 01:50:13;;;;;;;;;2.00;2.00;;;;;;;;5000470;28;52913;-58
2023/07/31 01:52:38;;;;;;;;;3.33;3.00;;;;;;;;5000002;28;51046;-58
2023/07/31 01:55:03;;;;;;;;;2.33;2.00;;;;;;;;4996856;28;51048;-58
2023/07/31 01:57:29;;;;;;;;;2.00;2.00;;;;;;;;4985577;28;51416;-58
2023/07/31 01:59:54;;;;;;;;;3.00;3.00;;;;;;;;5014232;28;51718;-56
2023/07/31 02:02:19;;;;;;;;;3.33;2.00;;;;;;;;5005359;28;51134;-57
2023/07/31 02:04:45;;;;;;;;;2.00;2.00;;;;;;;;4993567;28;51020;-57
2023/07/31 02:07:10;;;;;;;;;2.67;2.00;;;;;;;;5001314;28;51126;-58
2023/07/31 02:09:35;;;;;;;;;3.00;3.00;;;;;;;;4999558;28;51827;-57
2023/07/31 02:12:00;;;;;;;;;2.00;2.00;;;;;;;;4999346;28;51122;-59
2023/07/31 02:14:26;;;;;;;;;2.00;2.00;;;;;;;;5008676;28;51093;-59
2023/07/31 02:16:51;;;;;;;;;2.00;2.00;;;;;;;;4999283;28;51300;-59
2023/07/31 02:19:16;;;;;;;;;2.00;2.00;;;;;;;;4995262;28;51074;-58
2023/07/31 02:21:41;;;;;;;;;2.00;2.00;;;;;;;;5002328;28;51198;-57
2023/07/31 02:24:06;;;;;;;;;2.67;2.67;;;;;;;;5013181;28;51102;-58
2023/07/31 02:26:32;;;;;;;;;2.00;2.00;;;;;;;;4995483;28;51095;-59
2023/07/31 02:28:57;;;;;;;;;2.00;2.00;;;;;;;;5005029;28;51199;-58
2023/07/31 02:31:22;;;;;;;;;2.00;2.00;;;;;;;;5001628;28;51014;-58
2023/07/31 02:33:47;;;;;;;;;3.00;2.00;;;;;;;;5009470;28;51324;-58
2023/07/31 02:36:13;;;;;;;;;3.00;2.67;;;;;;;;5006657;28;51093;-57
2023/07/31 02:38:38;;;;;;;;;2.33;2.33;;;;;;;;5001874;28;51958;-57
2023/07/31 02:41:03;;;;;;;;;3.00;2.00;;;;;;;;4998828;28;50983;-58
2023/07/31 02:43:28;;;;;;;;;1.67;1.67;;;;;;;;5007957;28;50846;-57
2023/07/31 02:45:53;;;;;;;;;2.33;2.33;;;;;;;;5003415;28;51049;-57
2023/07/31 02:48:19;;;;;;;;;1.00;1.00;;;;;;;;4995575;28;51849;-57
2023/07/31 02:50:44;;;;;;;;;1.67;1.67;;;;;;;;5000546;28;51185;-57
2023/07/31 02:53:10;;;;;;;;;1.00;1.00;;;;;;;;5003163;28;51161;-57
2023/07/31 02:55:35;;;;;;;;;3.00;2.33;;;;;;;;5006740;28;50983;-57
2023/07/31 02:58:00;;;;;;;;;1.67;1.67;;;;;;;;5004801;28;51817;-57
2023/07/31 03:00:25;;;;;;;;;2.00;2.00;;;;;;;;5010083;28;51023;-57
2023/07/31 03:02:50;;;;;;;;;2.00;1.00;;;;;;;;5009230;28;50987;-57
2023/07/31 03:05:15;;;;;;;;;3.00;2.33;;;;;;;;5013715;28;50893;-58
2023/07/31 03:07:41;;;;;;;;;2.00;2.00;;;;;;;;5012862;28;51077;-57
2023/07/31 03:10:06;;;;;;;;;1.67;1.67;;;;;;;;5012554;28;51034;-56
2023/07/31 03:12:31;;;;;;;;;2.67;2.00;;;;;;;;5004046;28;51158;-58
2023/07/31 03:14:57;;;;;;;;;2.00;2.00;;;;;;;;4998138;28;51144;-58
2023/07/31 03:17:22;;;;;;;;;0.33;0.33;;;;;;;;5006130;28;51895;-58
2023/07/31 03:19:47;;;;;;;;;1.00;1.00;;;;;;;;5003286;28;51198;-57
2023/07/31 03:22:12;;;;;;;;;2.00;2.00;;;;;;;;5001003;28;51160;-58
2023/07/31 03:24:37;;;;;;;;;1.33;1.33;;;;;;;;5005402;28;51434;-58
2023/07/31 03:27:03;;;;;;;;;1.33;0.67;;;;;;;;5000720;28;52169;-57
2023/07/31 03:29:28;;;;;;;;;1.33;1.00;;;;;;;;4995487;28;50965;-57
2023/07/31 03:31:53;;;;;;;;;1.67;1.00;;;;;;;;5011203;28;50912;-57
2023/07/31 03:34:18;;;;;;;;;1.33;1.00;;;;;;;;5007595;28;50992;-58
2023/07/31 03:36:44;;;;;;;;;2.00;2.00;;;;;;;;4997640;28;53884;-58
2023/07/31 03:39:09;;;;;;;;;2.33;2.00;;;;;;;;5005351;28;51083;-59
2023/07/31 03:41:34;;;;;;;;;2.33;2.00;;;;;;;;4999323;28;51113;-58
2023/07/31 03:43:59;;;;;;;;;2.00;2.00;;;;;;;;4996477;28;51432;-57
2023/07/31 03:46:25;;;;;;;;;1.67;1.67;;;;;;;;4999216;28;51314;-58
2023/07/31 03:48:51;;;;;;;;;2.00;2.00;;;;;;;;5001765;28;51113;-58
2023/07/31 03:51:17;;;;;;;;;1.67;1.67;;;;;;;;4999678;28;51035;-58
2023/07/31 03:53:42;;;;;;;;;3.00;3.00;;;;;;;;5009210;28;50880;-58
2023/07/31 03:56:07;;;;;;;;;2.00;2.00;;;;;;;;5010695;28;51154;-60
2023/07/31 03:58:32;;;;;;;;;2.00;1.33;;;;;;;;5003698;28;51007;-58
2023/07/31 04:00:58;;;;;;;;;3.00;1.67;;;;;;;;5003811;28;50988;-57
2023/07/31 04:03:23;;;;;;;;;2.00;2.00;;;;;;;;5008273;28;51283;-58
2023/07/31 04:05:48;;;;;;;;;2.00;2.00;;;;;;;;5007454;28;51756;-58
2023/07/31 04:08:13;;;;;;;;;2.00;2.00;;;;;;;;5001010;28;50999;-58
2023/07/31 04:10:38;;;;;;;;;1.00;1.00;;;;;;;;4998213;28;50925;-57
2023/07/31 04:13:04;;;;;;;;;1.33;1.33;;;;;;;;5011444;28;50861;-58
2023/07/31 04:15:29;;;;;;;;;2.67;2.33;;;;;;;;5012191;28;50982;-58
2023/07/31 04:17:54;;;;;;;;;2.67;2.67;;;;;;;;5011850;28;51090;-58
2023/07/31 04:20:19;;;;;;;;;2.00;2.00;;;;;;;;5012591;28;50975;-58
2023/07/31 04:22:44;;;;;;;;;2.00;1.00;;;;;;;;5009149;28;51187;-58
2023/07/31 04:25:10;;;;;;;;;2.00;1.67;;;;;;;;5011896;28;51050;-58
2023/07/31 04:27:35;;;;;;;;;3.00;1.00;;;;;;;;5012315;28;51125;-58
2023/07/31 04:30:00;;;;;;;;;2.00;2.00;;;;;;;;5017477;28;51359;-58
2023/07/31 04:32:25;;;;;;;;;1.00;1.00;;;;;;;;4998579;28;51221;-57
2023/07/31 04:34:50;;;;;;;;;1.33;1.33;;;;;;;;5011849;28;50908;-58
2023/07/31 04:37:16;;;;;;;;;3.00;2.00;;;;;;;;5011906;28;51196;-57
2023/07/31 04:39:41;;;;;;;;;3.67;3.33;;;;;;;;5011893;28;51288;-57
2023/07/31 04:42:06;;;;;;;;;2.00;2.00;;;;;;;;5009727;28;51062;-59
2023/07/31 04:44:31;;;;;;;;;4.00;2.00;;;;;;;;5001117;28;51288;-58
2023/07/31 04:46:56;;;;;;;;;2.00;2.00;;;;;;;;5005049;28;51203;-58
2023/07/31 04:49:22;;;;;;;;;2.50;2.50;;;;;;;;5003579;28;51077;-58
2023/07/31 04:51:47;;;;;;;;;2.00;1.67;;;;;;;;5006837;28;51459;-58
2023/07/31 04:54:14;;;;;;;;;3.00;2.67;;;;;;;;5004415;28;52084;-58
2023/07/31 04:56:39;;;;;;;;;2.00;2.00;;;;;;;;5007801;28;51257;-58
2023/07/31 04:59:05;;;;;;;;;3.00;2.67;;;;;;;;5006503;28;51389;-57
2023/07/31 05:01:30;;;;;;;;;3.67;3.00;;;;;;;;5012621;28;51245;-57
2023/07/31 05:03:55;;;;;;;;;3.00;3.00;;;;;;;;5014088;28;51914;-58
2023/07/31 05:06:20;;;;;;;;;5.00;3.00;;;;;;;;5015127;28;50908;-58
2023/07/31 05:08:45;;;;;;;;;3.67;3.67;;;;;;;;5015039;28;51303;-58
2023/07/31 05:11:11;;;;;;;;;2.67;2.67;;;;;;;;5015500;28;51069;-58
2023/07/31 05:13:36;;;;;;;;;2.00;2.00;;;;;;;;5015040;28;52065;-58
2023/07/31 05:16:02;;;;;;;;;3.00;3.00;;;;;;;;5013677;28;50999;-58
2023/07/31 05:18:27;;;;;;;;;4.67;4.67;;;;;;;;4995384;28;51263;-59
2023/07/31 05:20:52;;;;;;;;;4.00;3.67;;;;;;;;5004708;28;51310;-58
2023/07/31 05:23:17;;;;;;;;;3.00;3.00;;;;;;;;5014896;28;51882;-58
2023/07/31 05:25:42;;;;;;;;;4.00;3.00;;;;;;;;5015053;28;50960;-58
2023/07/31 05:28:08;;;;;;;;;4.00;3.00;;;;;;;;5015046;28;51085;-58
2023/07/31 05:30:33;;;;;;;;;2.00;2.00;;;;;;;;5014545;28;51134;-58
2023/07/31 05:32:58;;;;;;;;;4.33;3.33;;;;;;;;5008333;28;51066;-57
2023/07/31 05:35:23;;;;;;;;;4.33;4.33;;;;;;;;5014801;28;50994;-57
2023/07/31 05:37:48;;;;;;;;;4.33;4.00;;;;;;;;5014884;28;50998;-57
2023/07/31 05:40:14;;;;;;;;;4.67;3.00;;;;;;;;5014991;28;51243;-57
2023/07/31 05:42:39;;;;;;;;;5.33;4.33;;;;;;;;5014594;28;51157;-57
2023/07/31 05:45:05;;;;;;;;;4.33;3.67;;;;;;;;5014845;28;51025;-58
2023/07/31 05:47:30;;;;;;;;;5.33;4.33;;;;;;;;5014347;28;50846;-58
2023/07/31 05:49:55;;;;;;;;;5.67;4.33;;;;;;;;5013405;28;51095;-57
2023/07/31 05:52:21;;;;;;;;;4.67;4.00;;;;;;;;5012614;28;51077;-56
2023/07/31 05:54:46;;;;;;;;;3.67;3.67;;;;;;;;5013954;28;51007;-57
2023/07/31 05:57:11;;;;;;;;;6.00;4.00;;;;;;;;5013534;28;51063;-58
2023/07/31 05:59:36;;;;;;;;;3.67;2.00;;;;;;;;5014523;28;51297;-59
2023/07/31 06:02:02;;;;;;;;;6.00;5.00;;;;;;;;5008565;28;53998;-57
2023/07/31 06:04:27;;;;;;;;;4.00;4.00;;;;;;;;5012971;28;51118;-59
2023/07/31 06:06:53;;;;;;;;;8.33;6.00;;;;;;;;5006976;28;51173;-59
2023/07/31 06:09:18;;;;;;;;;6.00;5.67;;;;;;;;5011362;28;51065;-59
2023/07/31 06:11:43;;;;;;;;;6.00;5.33;;;;;;;;5008106;28;51268;-59
2023/07/31 06:14:08;;;;;;;;;7.33;6.00;;;;;;;;5001296;28;50984;-59
2023/07/31 06:16:34;;;;;;;;;5.33;4.00;;;;;;;;5008635;28;51043;-58
2023/07/31 06:18:59;;;;;;;;;4.33;4.33;;;;;;;;5014067;28;51015;-58
2023/07/31 06:21:24;;;;;;;;;6.67;6.00;;;;;;;;5013575;28;51117;-58
2023/07/31 06:23:49;;;;;;;;;5.00;4.33;;;;;;;;5013611;28;51023;-59
2023/07/31 06:26:15;;;;;;;;;7.00;7.00;;;;;;;;5014167;28;51208;-60
2023/07/31 06:28:40;;;;;;;;;7.67;6.00;;;;;;;;5014179;28;50833;-58
2023/07/31 06:31:05;;;;;;;;;4.00;4.00;;;;;;;;5013746;28;51049;-58
2023/07/31 06:33:30;;;;;;;;;5.00;5.00;;;;;;;;5013817;28;50997;-58
2023/07/31 06:35:55;;;;;;;;;7.67;6.67;;;;;;;;5013707;28;50991;-59
2023/07/31 06:38:27;;;;;;;;;6.00;6.00;;;;;;;;5014263;28;50876;-59
2023/07/31 06:40:52;;;;;;;;;5.67;5.67;;;;;;;;5013166;28;51018;-57
2023/07/31 06:43:17;;;;;;;;;5.33;5.33;;;;;;;;5013657;28;51097;-59
2023/07/31 06:45:42;;;;;;;;;5.33;5.00;;;;;;;;5013514;28;51225;-58
2023/07/31 06:48:08;;;;;;;;;9.33;8.33;;;;;;;;5013382;28;50995;-58
2023/07/31 06:50:33;;;;;;;;;5.33;5.33;;;;;;;;5013160;28;51930;-58
2023/07/31 06:52:58;;;;;;;;;8.00;5.00;;;;;;;;5013455;28;51172;-57
2023/07/31 06:55:23;;;;;;;;;8.00;7.33;;;;;;;;5013582;28;51038;-58
2023/07/31 06:57:50;;;;;;;;;8.33;8.00;;;;;;;;5013040;28;51202;-58
2023/07/31 07:00:16;;;;;;;;;8.00;7.00;;;;;;;;5005414;28;51070;-57
2023/07/31 07:02:41;;;;;;;;;7.00;6.00;;;;;;;;4996821;28;51252;-58
2023/07/31 07:05:07;;;;;;;;;6.33;6.00;;;;;;;;5000523;28;51193;-58
2023/07/31 07:07:32;;;;;;;;;7.00;5.00;;;;;;;;5022577;28;51260;-58
2023/07/31 07:09:59;;;;;;;;;8.33;7.00;;;;;;;;5012198;28;51756;-58
2023/07/31 07:12:24;;;;;;;;;8.00;7.00;;;;;;;;5009420;28;52763;-58
2023/07/31 07:14:50;;;;;;;;;6.33;6.33;;;;;;;;5012860;28;50929;-58
2023/07/31 07:17:15;;;;;;;;;7.00;6.67;;;;;;;;5012635;28;51061;-58
2023/07/31 07:19:40;;;;;;;;;5.67;5.33;;;;;;;;5012595;28;51706;-56
2023/07/31 07:22:06;;;;;;;;;7.00;6.33;;;;;;;;5007755;28;51229;-57
2023/07/31 07:24:31;;;;;;;;;5.33;5.00;;;;;;;;5009534;28;51483;-57
2023/07/31 07:26:56;;;;;;;;;6.00;6.00;;;;;;;;5001920;28;51125;-57
2023/07/31 07:29:21;;;;;;;;;8.00;8.00;;;;;;;;5009717;28;51779;-57
2023/07/31 07:31:46;;;;;;;;;4.67;4.67;;;;;;;;5008328;28;51246;-57
2023/07/31 07:34:12;;;;;;;;;5.67;5.67;;;;;;;;4993756;28;51070;-56
2023/07/31 07:36:37;;;;;;;;;5.00;5.00;;;;;;;;4996550;28;51121;-56
2023/07/31 07:39:02;;;;;;;;;6.00;6.00;;;;;;;;4992619;28;51389;-56
2023/07/31 07:41:27;;;;;;;;;8.00;6.33;;;;;;;;4992909;28;51011;-57
2023/07/31 07:43:53;;;;;;;;;5.00;4.33;;;;;;;;4992998;28;50924;-57
2023/07/31 07:46:18;;;;;;;;;7.33;6.00;;;;;;;;4993455;28;51099;-56
2023/07/31 07:48:43;;;;;;;;;7.67;6.00;;;;;;;;5003815;28;52445;-57
2023/07/31 07:51:08;;;;;;;;;8.67;7.00;;;;;;;;5004720;28;51034;-57
2023/07/31 07:53:33;;;;;;;;;5.33;5.00;;;;;;;;5002600;28;51106;-57
2023/07/31 07:55:59;;;;;;;;;5.00;4.00;;;;;;;;5002287;28;51160;-57
2023/07/31 07:58:24;;;;;;;;;11.33;8.67;;;;;;;;5007853;28;51138;-57
2023/07/31 08:00:50;;;;;;;;;5.33;4.33;;;;;;;;5007971;28;50981;-57
2023/07/31 08:03:16;;;;;;;;;6.67;6.00;;;;;;;;4992770;28;51009;-56
2023/07/31 08:05:42;;;;;;;;;10.00;8.67;;;;;;;;4992933;28;51216;-56
2023/07/31 08:08:07;;;;;;;;;11.00;8.33;;;;;;;;4995395;28;52075;-57
2023/07/31 08:10:32;;;;;;;;;3.67;3.67;;;;;;;;4995890;28;51000;-57
2023/07/31 08:12:57;;;;;;;;;6.00;5.33;;;;;;;;5005813;28;51120;-57
2023/07/31 08:15:23;;;;;;;;;6.33;5.33;;;;;;;;5012510;28;51290;-57
2023/07/31 08:17:48;;;;;;;;;5.00;4.33;;;;;;;;5002680;28;51576;-57
2023/07/31 08:20:14;;;;;;;;;6.67;6.00;;;;;;;;4995229;28;50980;-57
2023/07/31 08:22:39;;;;;;;;;5.00;5.00;;;;;;;;4997647;28;51041;-57
2023/07/31 08:25:06;;;;;;;;;5.00;5.00;;;;;;;;5016005;28;50856;-57
2023/07/31 08:27:31;;;;;;;;;6.33;5.67;;;;;;;;5015743;28;53081;-57
2023/07/31 08:29:57;;;;;;;;;8.00;7.00;;;;;;;;5015828;28;50960;-58
2023/07/31 08:32:22;;;;;;;;;4.33;4.00;;;;;;;;5015426;28;51035;-58
2023/07/31 08:34:47;;;;;;;;;6.00;6.00;;;;;;;;5015918;28;51039;-58
2023/07/31 08:37:12;;;;;;;;;7.00;5.00;;;;;;;;5016489;28;51525;-57
2023/07/31 08:39:39;;;;;;;;;6.00;5.33;;;;;;;;5016585;28;51129;-59
2023/07/31 08:42:07;;;;;;;;;8.00;5.33;;;;;;;;5016362;28;51050;-58
2023/07/31 08:44:33;;;;;;;;;9.33;8.67;;;;;;;;5015703;28;51325;-59
2023/07/31 08:46:58;;;;;;;;;6.00;5.00;;;;;;;;5015167;28;51097;-56
2023/07/31 08:49:24;;;;;;;;;6.33;6.33;;;;;;;;5013707;28;50951;-57
2023/07/31 08:51:50;;;;;;;;;5.33;5.33;;;;;;;;5015284;28;51083;-57
2023/07/31 08:54:15;;;;;;;;;7.33;6.67;;;;;;;;5015281;28;51063;-57
2023/07/31 08:56:41;;;;;;;;;4.67;4.67;;;;;;;;5014792;28;50912;-57
2023/07/31 08:59:07;;;;;;;;;5.67;4.67;;;;;;;;5015314;28;51087;-57
2023/07/31 09:01:36;;;;;;;;;4.67;4.67;;;;;;;;5014964;28;51176;-57
2023/07/31 09:04:01;;;;;;;;;5.33;5.33;;;;;;;;5015283;28;51313;-57
2023/07/31 09:06:28;;;;;;;;;6.33;6.33;;;;;;;;5014520;28;51839;-57
2023/07/31 09:08:53;;;;;;;;;6.33;5.67;;;;;;;;5005407;28;51138;-59
2023/07/31 09:11:20;;;;;;;;;4.00;4.00;;;;;;;;4993920;28;50953;-57
2023/07/31 09:13:46;;;;;;;;;5.67;5.00;;;;;;;;5001183;28;51386;-58
2023/07/31 09:16:11;;;;;;;;;8.67;5.33;;;;;;;;5012785;28;52755;-58
2023/07/31 09:18:56;;;;;;;;;4.00;4.00;;;;;;;;4994705;28;51036;-58
2023/07/31 09:21:22;;;;;;;;;4.67;4.67;;;;;;;;4993679;28;50975;-58
2023/07/31 09:23:47;;;;;;;;;5.00;4.00;;;;;;;;4995205;28;50992;-58
2023/07/31 09:26:28;;;;;;;;;5.00;5.00;;;;;;;;4994387;28;51066;-58
2023/07/31 09:28:53;;;;;;;;;6.00;5.00;;;;;;;;4996440;28;51611;-58
2023/07/31 09:31:31;;;;;;;;;5.00;5.00;;;;;;;;5014490;28;50841;-58
2023/07/31 09:33:56;;;;;;;;;5.33;5.33;;;;;;;;5014453;28;51311;-58
2023/07/31 09:36:21;;;;;;;;;20.67;17.00;;;;;;;;5013951;28;51945;-58
2023/07/31 09:38:46;;;;;;;;;5.33;4.67;;;;;;;;5014560;28;51097;-58
2023/07/31 09:41:13;;;;;;;;;6.00;5.50;;;;;;;;5014543;28;50905;-58
2023/07/31 09:43:38;;;;;;;;;6.33;5.00;;;;;;;;5014035;28;51082;-57
2023/07/31 09:46:03;;;;;;;;;7.00;6.00;;;;;;;;5014135;28;52111;-57
2023/07/31 09:48:28;;;;;;;;;6.67;6.00;;;;;;;;5013688;28;51059;-57
2023/07/31 09:50:54;;;;;;;;;6.67;5.00;;;;;;;;5014283;28;51052;-57
2023/07/31 09:53:27;;;;;;;;;6.00;6.00;;;;;;;;5014075;28;50999;-58
2023/07/31 09:55:53;;;;;;;;;5.33;5.00;;;;;;;;5013801;28;51812;-57
2023/07/31 09:58:19;;;;;;;;;6.00;5.33;;;;;;;;5013536;28;51026;-56
2023/07/31 10:00:44;;;;;;;;;7.00;5.33;;;;;;;;5014201;28;50956;-58
2023/07/31 10:03:10;;;;;;;;;5.00;5.00;;;;;;;;5013993;28;50858;-58
2023/07/31 10:05:37;;;;;;;;;9.00;7.67;;;;;;;;5013417;28;51269;-58
2023/07/31 10:08:03;;;;;;;;;6.33;6.33;;;;;;;;5013757;28;51240;-58
2023/07/31 10:10:28;;;;;;;;;6.00;5.00;;;;;;;;4999877;28;51080;-58
2023/07/31 10:12:56;;;;;;;;;8.00;6.00;;;;;;;;5000031;28;51842;-58
2023/07/31 10:15:21;;;;;;;;;5.00;5.00;;;;;;;;5006103;28;51138;-58
2023/07/31 10:17:47;;;;;;;;;4.67;4.33;;;;;;;;5013512;28;50944;-57
2023/07/31 10:20:13;;;;;;;;;5.00;5.00;;;;;;;;5013990;28;51008;-58
2023/07/31 10:22:39;;;;;;;;;6.67;5.67;;;;;;;;5013848;28;51366;-57
2023/07/31 10:25:06;;;;;;;;;6.00;5.00;;;;;;;;5013173;28;51212;-58
2023/07/31 10:27:34;;;;;;;;;5.67;5.67;;;;;;;;5013650;28;50976;-58
2023/07/31 10:30:00;;;;;;;;;7.00;7.00;;;;;;;;5012065;28;50966;-58
2023/07/31 10:32:26;;;;;;;;;6.00;5.67;;;;;;;;5013149;28;51048;-58
2023/07/31 10:34:52;;;;;;;;;8.67;7.67;;;;;;;;5013063;28;52575;-58
2023/07/31 10:37:22;;;;;;;;;6.00;6.00;;;;;;;;5013409;28;51056;-58
2023/07/31 10:39:55;;;;;;;;;9.00;7.67;;;;;;;;5013123;28;50990;-58
2023/07/31 10:42:26;;;;;;;;;7.67;7.00;;;;;;;;5007639;28;51150;-57
2023/07/31 10:44:54;;;;;;;;;7.67;7.00;;;;;;;;4999853;28;51734;-58
2023/07/31 10:47:20;;;;;;;;;5.00;5.00;;;;;;;;5002268;28;51101;-58
2023/07/31 10:49:46;;;;;;;;;6.33;5.00;;;;;;;;4992881;28;51664;-57
2023/07/31 10:52:13;;;;;;;;;8.00;8.00;;;;;;;;4995944;28;51261;-57
2023/07/31 10:54:38;;;;;;;;;5.67;4.00;;;;;;;;5013026;28;51781;-58
2023/07/31 10:57:18;;;;;;;;;7.33;6.00;;;;;;;;5013102;28;50988;-57
2023/07/31 10:59:43;;;;;;;;;8.00;8.00;;;;;;;;5013047;28;51036;-57
2023/07/31 11:02:23;;;;;;;;;9.00;7.33;;;;;;;;5012687;28;50948;-57
2023/07/31 11:05:05;;;;;;;;;2.33;2.33;;;;;;;;5012730;28;50965;-58
2023/07/31 11:07:45;;;;;;;;;7.00;6.33;;;;;;;;5011087;28;51025;-57
2023/07/31 11:10:11;;;;;;;;;5.33;4.33;;;;;;;;5011814;28;50861;-57
2023/07/31 11:12:37;;;;;;;;;4.33;4.33;;;;;;;;5012780;28;51083;-57
2023/07/31 11:15:03;;;;;;;;;9.00;8.00;;;;;;;;5012591;28;51107;-57
2023/07/31 11:17:28;;;;;;;;;7.67;7.00;;;;;;;;5011951;28;51009;-58
2023/07/31 11:19:53;;;;;;;;;6.33;5.33;;;;;;;;5012863;28;51037;-58
2023/07/31 11:22:18;;;;;;;;;7.00;7.00;;;;;;;;5013075;28;51218;-57
2023/07/31 11:24:44;;;;;;;;;7.67;6.33;;;;;;;;5012857;28;51115;-58
2023/07/31 11:27:09;;;;;;;;;7.00;7.00;;;;;;;;5012621;28;51086;-58
2023/07/31 11:29:34;;;;;;;;;7.67;6.67;;;;;;;;5012870;28;51030;-58
2023/07/31 11:32:02;;;;;;;;;9.33;8.00;;;;;;;;5012470;28;51098;-58
2023/07/31 11:34:29;;;;;;;;;9.00;8.00;;;;;;;;4992691;28;51698;-58
2023/07/31 11:36:55;;;;;;;;;8.00;8.00;;;;;;;;4990940;28;51004;-58
2023/07/31 11:39:20;;;;;;;;;10.33;9.00;;;;;;;;4999912;28;51019;-58
2023/07/31 11:41:45;;;;;;;;;7.67;7.00;;;;;;;;5012727;28;50933;-57
2023/07/31 11:44:11;;;;;;;;;7.67;7.00;;;;;;;;5012742;28;50946;-57
2023/07/31 11:46:36;;;;;;;;;8.33;8.00;;;;;;;;5014206;28;51061;-58
2023/07/31 11:49:01;;;;;;;;;9.67;7.00;;;;;;;;4993846;28;50866;-57
2023/07/31 11:51:29;;;;;;;;;9.00;8.33;;;;;;;;4992738;28;50883;-57
2023/07/31 11:53:55;;;;;;;;;7.00;7.00;;;;;;;;4992287;28;51701;-58
2023/07/31 11:56:22;;;;;;;;;8.00;7.00;;;;;;;;4992390;28;51172;-58
2023/07/31 11:58:48;;;;;;;;;10.33;10.33;;;;;;;;4992461;28;51000;-58
2023/07/31 12:01:15;;;;;;;;;10.00;9.00;;;;;;;;4992350;28;50897;-58
2023/07/31 12:03:42;;;;;;;;;9.00;8.00;;;;;;;;4990498;28;53154;-58
2023/07/31 12:06:08;;;;;;;;;10.67;9.67;;;;;;;;4991971;28;51036;-59
2023/07/31 12:08:33;;;;;;;;;10.33;9.33;;;;;;;;4997913;28;51025;-57
2023/07/31 12:11:03;;;;;;;;;12.67;11.33;;;;;;;;5012307;28;51082;-57
2023/07/31 12:13:30;;;;;;;;;8.00;7.67;;;;;;;;5009962;28;52121;-57
2023/07/31 12:15:57;;;;;;;;;8.67;7.67;;;;;;;;5010271;28;51101;-57
2023/07/31 12:18:22;;;;;;;;;11.00;10.00;;;;;;;;5010287;28;51243;-56
2023/07/31 12:20:49;;;;;;;;;8.33;8.00;;;;;;;;5012361;28;51110;-58
2023/07/31 12:23:16;;;;;;;;;7.00;7.00;;;;;;;;5012118;28;53049;-56
2023/07/31 12:25:41;;;;;;;;;9.33;8.67;;;;;;;;5010546;28;51195;-57
2023/07/31 12:28:11;;;;;;;;;6.00;6.00;;;;;;;;5011921;28;51095;-58
2023/07/31 12:30:36;;;;;;;;;7.00;6.33;;;;;;;;5012060;28;51034;-58
2023/07/31 12:33:13;;;;;;;;;8.00;7.33;;;;;;;;5011126;28;50944;-58
2023/07/31 12:35:40;;;;;;;;;6.33;5.00;;;;;;;;5011210;28;51199;-58
2023/07/31 12:38:05;;;;;;;;;6.00;5.33;;;;;;;;5011579;28;50966;-58
2023/07/31 12:40:31;;;;;;;;;8.00;7.00;;;;;;;;5011178;28;51387;-59
2023/07/31 12:42:56;;;;;;;;;9.33;8.33;;;;;;;;5010982;28;51159;-58
2023/07/31 12:45:23;;;;;;;;;7.00;7.00;;;;;;;;5011284;28;51152;-58
2023/07/31 12:47:48;;;;;;;;;9.67;8.33;;;;;;;;5011315;28;50956;-58
2023/07/31 12:50:13;;;;;;;;;9.00;8.00;;;;;;;;5011633;28;50844;-58
2023/07/31 12:52:38;;;;;;;;;9.00;9.00;;;;;;;;5009657;28;51153;-58
2023/07/31 12:55:04;;;;;;;;;9.00;8.00;;;;;;;;5011427;28;51114;-58
2023/07/31 12:57:29;;;;;;;;;6.00;6.00;;;;;;;;5011501;28;51157;-58
2023/07/31 12:59:55;;;;;;;;;8.67;7.67;;;;;;;;5011272;28;51149;-57
2023/07/31 13:02:20;;;;;;;;;7.00;5.33;;;;;;;;5009484;28;52727;-57
2023/07/31 13:04:46;;;;;;;;;6.67;6.67;;;;;;;;5011842;28;51237;-58
2023/07/31 13:07:11;;;;;;;;;10.33;9.33;;;;;;;;5014892;28;51005;-58
2023/07/31 13:09:36;;;;;;;;;7.00;7.00;;;;;;;;5014890;28;51089;-58
2023/07/31 13:12:01;;;;;;;;;8.67;8.00;;;;;;;;5014432;28;51718;-58
2023/07/31 13:14:26;;;;;;;;;5.67;5.67;;;;;;;;5014874;28;51007;-58
2023/07/31 13:16:52;;;;;;;;;7.00;5.00;;;;;;;;5014698;28;51276;-58
2023/07/31 13:19:17;;;;;;;;;8.00;6.00;;;;;;;;5014938;28;51018;-57
2023/07/31 13:21:42;;;;;;;;;8.00;8.00;;;;;;;;5014490;28;51621;-58
2023/07/31 13:24:07;;;;;;;;;7.00;7.00;;;;;;;;5014412;28;51262;-57
2023/07/31 13:26:34;;;;;;;;;8.00;7.33;;;;;;;;5014440;28;51317;-57
2023/07/31 13:28:59;;;;;;;;;12.67;12.00;;;;;;;;5014399;28;51030;-59
2023/07/31 13:31:24;;;;;;;;;5.00;5.00;;;;;;;;5013760;28;51069;-57
2023/07/31 13:33:49;;;;;;;;;5.00;4.00;;;;;;;;5013635;28;51117;-58
2023/07/31 13:36:14;;;;;;;;;9.00;7.67;;;;;;;;5015351;28;51220;-58
2023/07/31 13:38:40;;;;;;;;;6.00;5.00;;;;;;;;5016377;28;50896;-58
2023/07/31 13:41:05;;;;;;;;;4.33;4.33;;;;;;;;5015140;28;51034;-58
2023/07/31 13:43:30;;;;;;;;;5.00;5.00;;;;;;;;5014126;28;50997;-60
2023/07/31 13:45:56;;;;;;;;;6.33;6.00;;;;;;;;5014567;28;51142;-58
2023/07/31 13:48:21;;;;;;;;;5.33;4.67;;;;;;;;5013984;28;51030;-57
2023/07/31 13:50:46;;;;;;;;;5.00;5.00;;;;;;;;5014334;28;52625;-58
2023/07/31 13:53:11;;;;;;;;;6.00;6.00;;;;;;;;5014229;28;50920;-57
2023/07/31 13:55:36;;;;;;;;;7.33;5.33;;;;;;;;5014570;28;50980;-58
2023/07/31 13:58:02;;;;;;;;;6.67;6.33;;;;;;;;5014446;28;51055;-57
2023/07/31 14:00:30;;;;;;;;;5.00;4.33;;;;;;;;5014002;28;51107;-58
2023/07/31 14:02:55;;;;;;;;;6.67;6.33;;;;;;;;5013680;28;51157;-57
2023/07/31 14:05:20;;;;;;;;;5.00;5.00;;;;;;;;5013988;28;51079;-58
2023/07/31 14:07:45;;;;;;;;;4.33;4.00;;;;;;;;5013876;28;50884;-57
2023/07/31 14:10:10;;;;;;;;;6.00;6.00;;;;;;;;5013393;28;51148;-57
2023/07/31 14:12:36;;;;;;;;;5.33;4.33;;;;;;;;5013529;28;50999;-58
2023/07/31 14:15:01;;;;;;;;;3.67;3.67;;;;;;;;5010540;28;51058;-59
2023/07/31 14:17:26;;;;;;;;;5.67;5.00;;;;;;;;5012069;28;50904;-57
2023/07/31 14:19:51;;;;;;;;;6.67;6.00;;;;;;;;5013218;28;51064;-58
2023/07/31 14:22:27;;;;;;;;;5.00;5.00;;;;;;;;5013490;28;51068;-58
2023/07/31 14:24:52;;;;;;;;;5.67;4.67;;;;;;;;5013599;28;50936;-58
2023/07/31 14:27:17;;;;;;;;;5.00;4.00;;;;;;;;5013495;28;51088;-57
2023/07/31 14:29:42;;;;;;;;;5.33;5.33;;;;;;;;5013163;28;51801;-58
2023/07/31 14:32:07;;;;;;;;;5.00;4.67;;;;;;;;5013001;28;51005;-58
2023/07/31 14:34:33;;;;;;;;;5.00;5.00;;;;;;;;5013636;28;50975;-59